Time;durP1;ratioP1;P1;durP2;ratioP2;P2;SDS_P1;SDS_P2;PMS_P1;PMS_P2;Temp;Humidity;BMP_temperature;BMP_pressure;BME280_temperature;BME280_humidity;BME280_pressure;Samples;Min_cycle;Max_cycle;Signal;HPM_P1;HPM_P2
2021/12/31 00:02:22;;;;;;;12.40;4.20;;;;;;;11.70;100.00;101651.78;5027856;28;20064;-93
2021/12/31 00:04:50;;;;;;;7.43;3.30;;;;;;;11.75;100.00;101657.81;5024529;28;20026;-93
2021/12/31 00:07:16;;;;;;;6.55;3.30;;;;;;;11.65;100.00;101629.78;5027411;28;20048;-92
2021/12/31 00:09:41;;;;;;;7.40;3.28;;;;;;;11.77;100.00;101650.59;5027574;28;20502;-93
2021/12/31 00:12:10;;;;;;;8.18;3.60;;;;;;;11.78;100.00;101654.13;5029573;28;20559;-94
2021/12/31 00:14:36;;;;;;;5.88;3.45;;;;;;;11.75;100.00;101649.81;5030181;28;20033;-92
2021/12/31 00:17:03;;;;;;;7.65;3.28;;;;;;;11.80;100.00;101657.63;5012066;28;20041;-92
2021/12/31 00:19:32;;;;;;;8.75;3.15;;;;;;;11.81;100.00;101654.88;5013629;28;20097;-92
2021/12/31 00:22:00;;;;;;;8.38;3.13;;;;;;;11.86;100.00;101655.56;5011765;28;20029;-93
2021/12/31 00:24:27;;;;;;;8.40;3.28;;;;;;;11.83;100.00;101663.72;5013699;28;20076;-94
2021/12/31 00:26:52;;;;;;;6.03;3.42;;;;;;;11.82;100.00;101667.25;5031924;28;20021;-94
2021/12/31 00:29:17;;;;;;;6.10;3.40;;;;;;;11.83;100.00;101662.81;5031239;28;20384;-93
2021/12/31 00:31:43;;;;;;;6.20;3.20;;;;;;;11.84;100.00;101657.44;5031570;28;20489;-92
2021/12/31 00:34:08;;;;;;;8.27;3.33;;;;;;;11.85;100.00;101661.84;5028801;28;20067;-93
2021/12/31 00:36:42;;;;;;;5.63;2.75;;;;;;;11.83;99.56;101666.38;5013102;28;20021;-93
2021/12/31 00:39:07;;;;;;;5.65;2.60;;;;;;;11.91;98.96;101669.59;5011574;28;20049;-92
2021/12/31 00:41:33;;;;;;;5.28;2.65;;;;;;;11.89;99.04;101671.44;5011041;28;20033;-93
2021/12/31 00:43:59;;;;;;;6.18;2.67;;;;;;;11.95;98.68;101679.19;5011141;28;20022;-93
2021/12/31 00:46:24;;;;;;;6.28;2.50;;;;;;;11.89;98.61;101663.44;5029985;28;20048;-92
2021/12/31 00:48:49;;;;;;;4.82;2.88;;;;;;;11.91;99.10;101672.25;5030878;28;20451;-92
2021/12/31 00:51:15;;;;;;;6.80;2.72;;;;;;;11.90;99.04;101666.97;5030600;28;20033;-93
2021/12/31 00:53:40;;;;;;;4.65;2.60;;;;;;;11.91;98.38;101661.59;5030981;28;20021;-93
2021/12/31 00:56:05;;;;;;;7.60;2.85;;;;;;;11.91;98.57;101676.69;5020298;28;20471;-93
2021/12/31 00:58:30;;;;;;;4.60;2.50;;;;;;;11.87;98.68;101667.09;5028124;28;20033;-94
2021/12/31 01:00:56;;;;;;;7.85;2.78;;;;;;;11.88;98.68;101659.06;5029822;28;20025;-92
2021/12/31 01:03:21;;;;;;;5.28;2.63;;;;;;;11.88;98.30;101667.06;5030795;28;20044;-92
2021/12/31 01:05:46;;;;;;;9.70;4.25;;;;;;;11.88;97.81;101653.72;5028542;28;20177;-92
2021/12/31 01:08:11;;;;;;;8.90;2.90;;;;;;;11.83;97.60;101653.06;5029822;28;20510;-93
2021/12/31 01:10:37;;;;;;;5.97;2.45;;;;;;;11.85;97.78;101656.50;5030321;28;20029;-93
2021/12/31 01:13:08;;;;;;;6.72;2.90;;;;;;;11.89;98.14;101673.25;5030478;28;20033;-91
2021/12/31 01:15:38;;;;;;;5.60;2.88;;;;;;;11.89;97.87;101671.44;5027145;28;20104;-91
2021/12/31 01:18:18;;;;;;;9.90;2.83;;;;;;;11.88;97.51;101660.84;5037359;28;20474;-91
2021/12/31 01:20:43;;;;;;;6.60;2.70;;;;;;;11.89;97.90;101662.59;5034574;28;20435;-91
2021/12/31 01:23:09;;;;;;;6.88;2.83;;;;;;;11.89;97.23;101662.59;5030980;28;20060;-92
2021/12/31 01:25:36;;;;;;;8.35;3.00;;;;;;;11.87;97.42;101660.00;5027787;28;20029;-92
2021/12/31 01:28:01;;;;;;;6.22;2.85;;;;;;;11.85;96.74;101643.16;5032421;28;20108;-93
2021/12/31 01:30:27;;;;;;;6.88;2.33;;;;;;;11.89;97.28;101663.44;5030543;28;20037;-93
2021/12/31 01:32:53;;;;;;;6.57;2.55;;;;;;;11.86;97.20;101652.03;5029293;28;20030;-93
2021/12/31 01:35:19;;;;;;;7.60;2.42;;;;;;;11.86;97.27;101660.91;5027417;28;20025;-92
2021/12/31 01:37:44;;;;;;;6.28;3.30;;;;;;;11.86;97.06;101666.25;5029469;28;20020;-92
2021/12/31 01:40:10;;;;;;;7.68;2.92;;;;;;;11.83;97.61;101666.38;5028793;28;20021;-91
2021/12/31 01:42:36;;;;;;;3.80;2.72;;;;;;;11.83;97.33;101661.06;5029759;28;20018;-92
2021/12/31 01:45:11;;;;;;;3.97;3.05;;;;;;;11.88;96.63;101667.06;5026874;28;20063;-92
2021/12/31 01:47:55;;;;;;;7.43;3.00;;;;;;;11.84;96.58;101659.25;5028143;28;20101;-91
2021/12/31 01:50:25;;;;;;;10.00;3.10;;;;;;;11.84;97.13;101678.78;5029929;28;20124;-92
2021/12/31 01:52:51;;;;;;;5.63;2.85;;;;;;;11.81;96.76;101664.69;5044947;28;20079;-92
2021/12/31 01:55:16;;;;;;;7.35;2.88;;;;;;;11.81;96.73;101660.22;5026853;28;20027;-91
2021/12/31 01:57:42;;;;;;;8.43;3.42;;;;;;;11.82;96.85;101672.59;5029389;28;20026;-91
2021/12/31 02:00:09;;;;;;;6.25;3.00;;;;;;;11.84;96.66;101664.59;5029103;28;20033;-92
2021/12/31 02:02:35;;;;;;;7.07;3.17;;;;;;;11.81;97.04;101670.00;5029409;28;20022;-91
2021/12/31 02:05:03;;;;;;;8.23;3.10;;;;;;;11.84;96.78;101678.78;5016841;28;20456;-90
2021/12/31 02:07:28;;;;;;;8.30;2.80;;;;;;;11.80;96.58;101661.16;5013207;28;20129;-90
2021/12/31 02:09:54;;;;;;;6.22;2.70;;;;;;;11.84;96.28;101673.44;5020828;28;20512;-90
2021/12/31 02:12:21;;;;;;;5.25;2.70;;;;;;;11.84;96.02;101683.25;5029000;28;20033;-91
2021/12/31 02:14:49;;;;;;;6.70;2.70;;;;;;;11.77;96.54;101661.28;5019015;28;20036;-91
2021/12/31 02:17:14;;;;;;;6.00;2.75;;;;;;;11.80;96.69;101674.47;5010293;28;20029;-91
2021/12/31 02:19:39;;;;;;;5.10;2.90;;;;;;;11.75;96.40;101671.16;5009629;28;20411;-91
2021/12/31 02:22:05;;;;;;;6.85;3.20;;;;;;;11.80;96.07;101674.47;5009028;28;20021;-92
2021/12/31 02:24:31;;;;;;;8.15;3.22;;;;;;;11.82;96.20;101672.59;5012081;28;20034;-92
2021/12/31 02:26:56;;;;;;;5.93;2.65;;;;;;;11.81;95.92;101668.22;5009082;28;20026;-92
2021/12/31 02:29:25;;;;;;;4.55;2.55;;;;;;;11.81;95.98;101662.88;5009256;28;20029;-92
2021/12/31 02:31:52;;;;;;;8.07;2.50;;;;;;;11.78;96.05;101668.31;5020956;28;20180;-92
2021/12/31 02:34:17;;;;;;;6.03;2.58;;;;;;;11.80;96.43;101669.16;5026494;28;20074;-93
2021/12/31 02:36:42;;;;;;;6.63;2.53;;;;;;;11.78;95.85;101664.81;5028571;28;20018;-92
2021/12/31 02:39:08;;;;;;;7.32;2.80;;;;;;;11.80;96.13;101662.94;5027876;28;20112;-91
2021/12/31 02:41:33;;;;;;;8.27;2.90;;;;;;;11.84;95.48;101660.13;5029375;28;20030;-91
2021/12/31 02:43:59;;;;;;;6.75;2.50;;;;;;;11.83;95.75;101654.81;5024331;28;20040;-92
2021/12/31 02:46:24;;;;;;;7.15;2.80;;;;;;;11.80;95.93;101653.16;5027584;28;20101;-92
2021/12/31 02:48:56;;;;;;;7.10;3.08;;;;;;;11.76;95.99;101648.88;5028455;28;20029;-91
2021/12/31 02:51:24;;;;;;;6.70;3.00;;;;;;;11.78;95.94;101649.66;5026575;28;20398;-92
2021/12/31 02:53:52;;;;;;;6.72;2.95;;;;;;;11.77;96.26;101653.28;5023954;28;20043;-92
2021/12/31 02:56:19;;;;;;;7.93;3.00;;;;;;;11.80;95.63;101652.28;5024671;28;20550;-92
2021/12/31 02:58:44;;;;;;;6.47;3.05;;;;;;;11.78;95.11;101649.66;5028459;28;20101;-92
2021/12/31 03:01:12;;;;;;;6.45;3.30;;;;;;;11.81;95.72;101660.22;5028250;28;20041;-91
2021/12/31 03:03:39;;;;;;;9.00;3.40;;;;;;;11.80;95.56;101655.81;5024888;28;20406;-92
2021/12/31 03:06:04;;;;;;;8.45;3.38;;;;;;;11.81;95.14;101651.34;5008161;28;20108;-92
2021/12/31 03:08:33;;;;;;;7.57;2.97;;;;;;;11.81;95.31;101648.69;5009776;28;20626;-92
2021/12/31 03:11:01;;;;;;;7.55;3.15;;;;;;;11.74;95.85;101645.38;5027846;28;20032;-91
2021/12/31 03:13:28;;;;;;;6.00;3.47;;;;;;;11.73;95.78;101641.00;5041919;28;20042;-92
2021/12/31 03:15:54;;;;;;;8.88;3.50;;;;;;;11.68;95.67;101643.00;5008607;28;20162;-91
2021/12/31 03:18:19;;;;;;;8.07;3.28;;;;;;;11.66;96.16;101650.19;5011297;28;20109;-92
2021/12/31 03:21:06;;;;;;;6.03;3.17;;;;;;;11.63;96.29;101647.66;5017061;28;20096;-92
2021/12/31 03:23:32;;;;;;;9.50;3.65;;;;;;;11.62;95.72;101637.91;5025804;28;20038;-91
2021/12/31 03:25:58;;;;;;;5.25;2.70;;;;;;;11.62;96.06;101643.25;5007769;28;20022;-90
2021/12/31 03:28:24;;;;;;;7.88;3.40;;;;;;;11.52;95.92;101623.25;5008330;28;20022;-91
2021/12/31 03:30:49;;;;;;;6.55;3.25;;;;;;;11.47;96.23;101624.31;5022752;28;20025;-92
2021/12/31 03:33:15;;;;;;;9.32;3.47;;;;;;;11.47;96.50;101631.44;5026743;28;20061;-91
2021/12/31 03:35:41;;;;;;;11.77;3.95;;;;;;;11.39;96.61;101625.56;5027340;28;20402;-92
2021/12/31 03:38:06;;;;;;;7.32;3.65;;;;;;;11.40;97.02;101636.16;5027791;28;20491;-91
2021/12/31 03:40:32;;;;;;;9.88;3.70;;;;;;;11.39;96.88;101638.91;5028585;28;20033;-92
2021/12/31 03:42:57;;;;;;;8.98;3.58;;;;;;;11.38;96.66;101630.03;5027808;28;20025;-93
2021/12/31 03:45:23;;;;;;;11.95;3.90;;;;;;;11.40;96.93;101635.28;5010405;28;20465;-92
2021/12/31 03:47:48;;;;;;;10.68;3.80;;;;;;;11.34;97.41;101619.56;5025337;28;20033;-91
2021/12/31 03:50:13;;;;;;;10.55;3.90;;;;;;;11.36;97.15;101625.69;5031606;28;20086;-93
2021/12/31 03:52:39;;;;;;;7.88;3.90;;;;;;;11.33;97.17;101613.38;5030634;28;20466;-92
2021/12/31 03:55:07;;;;;;;6.13;4.07;;;;;;;11.38;96.86;101622.03;5029889;28;20040;-91
2021/12/31 03:57:33;;;;;;;7.13;4.15;;;;;;;11.33;97.02;101610.72;5031393;28;20088;-92
2021/12/31 03:59:58;;;;;;;9.15;4.63;;;;;;;11.33;97.20;101616.03;5031519;28;20029;-92
2021/12/31 04:02:23;;;;;;;10.18;4.05;;;;;;;11.31;97.57;101628.53;5031426;28;20083;-92
2021/12/31 04:04:49;;;;;;;7.43;3.90;;;;;;;11.30;97.35;101628.63;5024035;28;20032;-92
2021/12/31 04:07:14;;;;;;;7.28;4.38;;;;;;;11.28;97.89;101633.13;5030630;28;20148;-92
2021/12/31 04:09:39;;;;;;;6.70;3.92;;;;;;;11.31;97.29;101633.00;5031461;28;20429;-92
2021/12/31 04:12:05;;;;;;;10.93;4.05;;;;;;;11.38;96.98;101626.50;5030677;28;20391;-92
2021/12/31 04:14:30;;;;;;;8.82;4.03;;;;;;;11.35;97.09;101623.97;5019094;28;20124;-92
2021/12/31 04:16:55;;;;;;;7.70;4.05;;;;;;;11.41;96.86;101624.59;5011418;28;20064;-93
2021/12/31 04:19:20;;;;;;;9.68;3.95;;;;;;;11.41;96.89;101635.25;5011341;28;20109;-92
2021/12/31 04:21:49;;;;;;;9.23;3.80;;;;;;;11.41;96.93;101629.91;5011693;28;20222;-92
2021/12/31 04:24:26;;;;;;;7.95;3.97;;;;;;;11.40;96.95;101632.63;5021131;28;20030;-92
2021/12/31 04:26:51;;;;;;;6.47;3.78;;;;;;;11.40;96.80;101638.81;5011894;28;20098;-93
2021/12/31 04:29:16;;;;;;;12.25;4.10;;;;;;;11.40;97.15;101638.81;5022268;28;20471;-92
2021/12/31 04:31:42;;;;;;;8.00;3.95;;;;;;;11.36;96.78;101623.88;5021357;28;20030;-92
2021/12/31 04:34:08;;;;;;;9.73;3.90;;;;;;;11.39;96.94;101631.75;5019388;28;20096;-92
2021/12/31 04:36:33;;;;;;;10.23;4.18;;;;;;;11.37;96.87;101625.66;5031628;28;20022;-93
2021/12/31 04:38:58;;;;;;;10.65;3.90;;;;;;;11.41;97.19;101615.69;5031520;28;20554;-92
2021/12/31 04:41:24;;;;;;;8.55;4.20;;;;;;;11.41;96.87;101623.69;5032155;28;20079;-92
2021/12/31 04:43:49;;;;;;;10.15;4.30;;;;;;;11.41;96.95;101623.69;5036218;28;20056;-92
2021/12/31 04:46:14;;;;;;;11.10;3.83;;;;;;;11.39;97.09;101618.44;5037182;28;20038;-91
2021/12/31 04:48:40;;;;;;;7.68;3.47;;;;;;;11.41;96.21;101610.34;5049911;28;20033;-91
2021/12/31 04:51:05;;;;;;;7.22;3.70;;;;;;;11.45;96.18;101609.31;5041658;28;20080;-92
2021/12/31 04:53:30;;;;;;;9.10;3.80;;;;;;;11.43;96.10;101614.72;5037988;28;20035;-90
2021/12/31 04:55:56;;;;;;;11.43;3.90;;;;;;;11.44;96.01;101616.44;5031096;28;20092;-90
2021/12/31 04:58:21;;;;;;;5.72;3.40;;;;;;;11.41;95.98;101619.25;5030004;28;20383;-91
2021/12/31 05:00:46;;;;;;;8.38;3.80;;;;;;;11.45;96.06;101620.84;5031087;28;20320;-92
2021/12/31 05:03:12;;;;;;;13.40;3.97;;;;;;;11.48;95.90;101626.03;5027639;28;20025;-93
2021/12/31 05:05:37;;;;;;;8.05;3.88;;;;;;;11.45;95.38;101617.31;5030739;28;20034;-92
2021/12/31 05:08:04;;;;;;;7.72;3.50;;;;;;;11.40;95.23;101606.84;5030240;28;20065;-92
2021/12/31 05:10:31;;;;;;;6.78;3.03;;;;;;;11.43;95.26;101611.19;5030844;28;20040;-93
2021/12/31 05:12:57;;;;;;;8.95;3.83;;;;;;;11.46;95.17;101616.38;5028474;28;20215;-92
2021/12/31 05:15:27;;;;;;;8.48;3.40;;;;;;;11.43;94.75;101601.38;5025882;28;20026;-92
2021/12/31 05:17:54;;;;;;;6.28;3.70;;;;;;;11.47;94.73;101618.97;5030077;28;20467;-92
2021/12/31 05:20:20;;;;;;;9.75;3.60;;;;;;;11.41;95.17;101613.94;5030114;28;20025;-92
2021/12/31 05:22:45;;;;;;;8.25;3.50;;;;;;;11.42;94.53;101609.44;5029078;28;20603;-92
2021/12/31 05:25:10;;;;;;;10.05;3.70;;;;;;;11.46;94.29;101619.06;5024913;28;20450;-92
2021/12/31 05:27:36;;;;;;;9.45;3.47;;;;;;;11.40;94.51;101609.50;5030087;28;20029;-92
2021/12/31 05:30:01;;;;;;;6.75;3.30;;;;;;;11.37;94.22;101604.31;5029845;28;20036;-92
2021/12/31 05:32:27;;;;;;;4.80;3.13;;;;;;;11.35;94.28;101603.50;5029850;28;20084;-92
2021/12/31 05:34:52;;;;;;;6.32;3.13;;;;;;;11.34;94.30;101603.56;5012618;28;20034;-93
2021/12/31 05:37:17;;;;;;;6.57;3.33;;;;;;;11.32;94.17;101608.09;5010008;28;20026;-92
2021/12/31 05:39:44;;;;;;;8.57;3.00;;;;;;;11.30;93.90;101605.50;5010480;28;20018;-93
2021/12/31 05:42:10;;;;;;;6.28;3.15;;;;;;;11.31;93.93;101587.72;5020420;28;20022;-90
2021/12/31 05:44:35;;;;;;;7.05;3.10;;;;;;;11.21;94.00;101584.56;5027132;28;20044;-91
2021/12/31 05:47:00;;;;;;;7.18;3.15;;;;;;;11.21;93.51;101584.56;5028899;28;20077;-90
2021/12/31 05:49:25;;;;;;;3.60;2.90;;;;;;;11.15;93.94;101583.00;5030022;28;20391;-92
2021/12/31 05:51:51;;;;;;;5.57;3.03;;;;;;;11.09;94.12;101579.75;5030194;28;20025;-91
2021/12/31 05:54:16;;;;;;;6.25;3.28;;;;;;;11.03;94.36;101579.97;5027122;28;20033;-90
2021/12/31 05:56:41;;;;;;;8.07;3.20;;;;;;;10.97;94.50;101571.31;5029768;28;20025;-92
2021/12/31 05:59:07;;;;;;;7.57;3.20;;;;;;;10.96;94.13;101558.06;5029661;28;20126;-91
2021/12/31 06:01:32;;;;;;;8.50;3.47;;;;;;;10.93;94.22;101566.19;5029161;28;20037;-91
2021/12/31 06:03:57;;;;;;;6.65;3.28;;;;;;;10.91;94.19;101552.94;5024030;28;20029;-91
2021/12/31 06:06:22;;;;;;;6.72;2.97;;;;;;;10.81;94.73;101548.91;5030119;28;20468;-91
2021/12/31 06:08:48;;;;;;;6.32;3.20;;;;;;;10.83;94.56;101556.84;5030464;28;20053;-92
2021/12/31 06:11:13;;;;;;;7.65;3.60;;;;;;;10.78;94.80;101561.47;5023249;28;20316;-91
2021/12/31 06:13:39;;;;;;;8.02;3.40;;;;;;;10.73;95.05;101570.50;5018332;28;20426;-90
2021/12/31 06:16:07;;;;;;;5.82;3.22;;;;;;;10.70;95.23;101561.78;5027520;28;20159;-91
2021/12/31 06:18:32;;;;;;;9.73;3.65;;;;;;;10.69;95.17;101562.69;5029270;28;20030;-91
2021/12/31 06:20:57;;;;;;;8.52;3.70;;;;;;;10.64;95.13;101559.38;5028800;28;20220;-91
2021/12/31 06:23:23;;;;;;;7.35;3.50;;;;;;;10.62;95.42;101580.72;5026831;28;20033;-91
2021/12/31 06:25:48;;;;;;;6.55;3.58;;;;;;;10.62;95.14;101575.41;5029044;28;20032;-91
2021/12/31 06:28:13;;;;;;;7.40;3.50;;;;;;;10.57;95.56;101573.84;5028993;28;20463;-91
2021/12/31 06:30:39;;;;;;;8.90;4.00;;;;;;;10.57;95.32;101565.84;5028146;28;20091;-91
2021/12/31 06:33:04;;;;;;;6.18;3.53;;;;;;;10.53;95.16;101558.91;5026218;28;20026;-91
2021/12/31 06:35:29;;;;;;;8.23;3.50;;;;;;;10.51;95.30;101561.66;5028908;28;20486;-92
2021/12/31 06:37:56;;;;;;;8.52;3.90;;;;;;;10.45;95.38;101556.56;5027403;28;20030;-91
2021/12/31 06:40:23;;;;;;;6.63;3.50;;;;;;;10.52;95.36;101559.84;5028534;28;20127;-93
2021/12/31 06:42:48;;;;;;;7.97;3.38;;;;;;;10.45;95.40;101568.09;5011438;28;20018;-90
2021/12/31 06:45:13;;;;;;;7.78;3.40;;;;;;;10.48;95.39;101575.94;5027306;28;20034;-91
2021/12/31 06:47:39;;;;;;;5.18;3.05;;;;;;;10.43;95.33;101563.75;5028392;28;20022;-91
2021/12/31 06:50:04;;;;;;;8.52;3.58;;;;;;;10.47;94.83;101584.84;5021129;28;20026;-92
2021/12/31 06:52:30;;;;;;;6.53;3.50;;;;;;;10.51;95.00;101590.06;5028006;28;20099;-92
2021/12/31 06:54:56;;;;;;;5.97;3.20;;;;;;;10.44;94.87;101584.94;5023471;28;20026;-92
2021/12/31 06:57:21;;;;;;;5.90;3.88;;;;;;;10.42;94.77;101599.25;5028149;28;20584;-92
2021/12/31 06:59:47;;;;;;;7.15;3.97;;;;;;;10.42;95.09;101604.59;5011724;28;20029;-92
2021/12/31 07:02:12;;;;;;;8.77;3.58;;;;;;;10.39;95.32;101589.59;5026870;28;20079;-91
2021/12/31 07:04:37;;;;;;;8.15;3.15;;;;;;;10.36;94.97;101592.38;5022685;28;20375;-92
2021/12/31 07:07:03;;;;;;;6.82;3.70;;;;;;;10.34;94.94;101594.22;5027862;28;20029;-91
2021/12/31 07:09:28;;;;;;;6.22;3.10;;;;;;;10.32;94.97;101588.09;5028738;28;20075;-93
2021/12/31 07:11:53;;;;;;;6.95;3.22;;;;;;;10.35;94.90;101590.63;5028569;28;20084;-92
2021/12/31 07:14:18;;;;;;;5.90;3.10;;;;;;;10.32;95.07;101603.19;5022084;28;20022;-92
2021/12/31 07:16:44;;;;;;;4.60;3.20;;;;;;;10.25;94.90;101597.25;5016541;28;20022;-91
2021/12/31 07:19:09;;;;;;;5.97;3.42;;;;;;;10.26;94.96;101593.66;5024671;28;20041;-92
2021/12/31 07:21:34;;;;;;;6.60;3.45;;;;;;;10.32;94.86;101595.19;5029300;28;20219;-92
2021/12/31 07:24:00;;;;;;;6.35;3.20;;;;;;;10.22;94.91;101581.34;5025790;28;20033;-92
2021/12/31 07:26:25;;;;;;;7.30;3.40;;;;;;;10.24;95.11;101603.44;5032232;28;20030;-92
2021/12/31 07:28:50;;;;;;;4.88;2.90;;;;;;;10.24;94.91;101614.06;5031693;28;20105;-92
2021/12/31 07:31:16;;;;;;;7.70;3.38;;;;;;;10.24;94.94;101611.41;5031703;28;20021;-91
2021/12/31 07:33:42;;;;;;;7.25;3.13;;;;;;;10.23;95.14;101615.00;5022786;28;20034;-92
2021/12/31 07:36:07;;;;;;;5.75;3.22;;;;;;;10.24;94.91;101611.41;5031178;28;20033;-91
2021/12/31 07:38:36;;;;;;;3.75;2.75;;;;;;;10.22;94.62;101610.63;5032554;28;20471;-92
2021/12/31 07:41:02;;;;;;;5.15;3.00;;;;;;;10.25;95.17;101607.03;5031429;28;20516;-93
2021/12/31 07:43:28;;;;;;;8.90;3.55;;;;;;;10.26;94.26;101603.44;5024070;28;20026;-92
2021/12/31 07:45:54;;;;;;;6.50;3.45;;;;;;;10.28;94.47;101607.75;5029707;28;20478;-92
2021/12/31 07:48:21;;;;;;;6.40;3.42;;;;;;;10.26;94.22;101604.28;5029378;28;20021;-91
2021/12/31 07:50:47;;;;;;;5.63;2.90;;;;;;;10.26;94.24;101614.94;5030694;28;20109;-91
2021/12/31 07:53:13;;;;;;;5.72;2.88;;;;;;;10.24;94.42;101611.41;5026993;28;20386;-92
2021/12/31 07:55:38;;;;;;;5.57;3.00;;;;;;;10.22;94.50;101618.59;5033751;28;20034;-91
2021/12/31 07:58:07;;;;;;;5.78;2.90;;;;;;;10.19;94.51;101624.03;5035039;28;20060;-88
2021/12/31 08:00:34;;;;;;;6.47;3.20;;;;;;;10.18;94.64;101627.63;5041030;28;20391;-93
2021/12/31 08:02:59;;;;;;;3.90;3.00;;;;;;;10.16;94.04;101625.03;5044610;28;20098;-90
2021/12/31 08:05:26;;;;;;;7.82;3.20;;;;;;;10.16;94.48;101646.31;5047536;28;20089;-90
2021/12/31 08:07:52;;;;;;;7.43;3.20;;;;;;;10.18;94.45;101646.25;5046198;28;20233;-90
2021/12/31 08:10:18;;;;;;;7.32;3.70;;;;;;;10.16;94.32;101637.47;5033170;28;20029;-89
2021/12/31 08:12:43;;;;;;;5.28;2.95;;;;;;;10.12;94.57;101644.69;5035265;28;20453;-90
2021/12/31 08:15:09;;;;;;;6.47;2.80;;;;;;;10.14;94.45;101658.78;5033708;28;20025;-89
2021/12/31 08:17:34;;;;;;;4.47;2.90;;;;;;;10.16;94.17;101650.75;5031215;28;20036;-89
2021/12/31 08:19:59;;;;;;;7.97;3.03;;;;;;;10.16;94.41;101661.41;5031157;28;20026;-90
2021/12/31 08:22:25;;;;;;;5.63;3.25;;;;;;;10.09;94.13;101646.56;5030088;28;20125;-91
2021/12/31 08:24:51;;;;;;;8.05;3.53;;;;;;;10.15;94.30;101670.28;5012395;28;20030;-91
2021/12/31 08:27:16;;;;;;;4.25;3.13;;;;;;;10.13;94.17;101664.16;5011197;28;20368;-90
2021/12/31 08:29:41;;;;;;;9.40;4.03;;;;;;;10.21;94.10;101662.09;5011523;28;20033;-90
2021/12/31 08:32:06;;;;;;;5.60;3.15;;;;;;;10.24;94.08;101653.97;5011531;28;20038;-90
2021/12/31 08:34:32;;;;;;;7.28;2.90;;;;;;;10.25;93.52;101631.84;5027919;28;20025;-90
2021/12/31 08:36:57;;;;;;;8.18;4.55;;;;;;;10.27;93.26;101640.59;5031304;28;20018;-91
2021/12/31 08:39:23;;;;;;;7.90;3.42;;;;;;;10.31;93.12;101630.72;5031568;28;20079;-90
2021/12/31 08:41:48;;;;;;;8.02;3.28;;;;;;;10.37;92.72;101643.81;5030922;28;20043;-94
2021/12/31 08:44:14;;;;;;;6.93;3.10;;;;;;;10.30;92.93;101632.53;5017036;28;20299;-89
2021/12/31 08:46:40;;;;;;;6.90;3.33;;;;;;;10.35;92.18;101635.00;5019947;28;20376;-89
2021/12/31 08:49:06;;;;;;;6.13;2.88;;;;;;;10.37;92.57;101627.84;5031765;28;20128;-89
2021/12/31 08:51:31;;;;;;;6.43;2.95;;;;;;;10.42;91.89;101615.22;5032640;28;20058;-94
2021/12/31 08:53:56;;;;;;;4.90;3.10;;;;;;;10.42;92.16;101628.53;5031277;28;20037;-93
2021/12/31 08:56:22;;;;;;;8.13;3.15;;;;;;;10.40;92.21;101619.72;5033631;28;20560;-93
2021/12/31 08:58:47;;;;;;;6.50;3.00;;;;;;;10.45;91.88;101626.63;5033510;28;20029;-92
2021/12/31 09:01:13;;;;;;;7.10;3.15;;;;;;;10.45;92.30;101617.78;5031735;28;20036;-90
2021/12/31 09:03:38;;;;;;;6.20;3.17;;;;;;;10.50;91.97;101617.59;5030178;28;20037;-91
2021/12/31 09:06:04;;;;;;;3.08;2.22;;;;;;;10.55;91.60;101605.84;5030628;28;20025;-93
2021/12/31 09:08:29;;;;;;;8.77;2.88;;;;;;;10.60;91.41;101611.84;5029302;28;20049;-92
2021/12/31 09:10:54;;;;;;;7.82;3.10;;;;;;;10.65;90.92;101617.00;5028052;28;20563;-89
2021/12/31 09:13:20;;;;;;;7.03;2.80;;;;;;;10.64;90.77;101601.97;5022598;28;20434;-91
2021/12/31 09:15:46;;;;;;;5.60;3.08;;;;;;;10.61;90.74;101599.41;5032592;28;20030;-84
2021/12/31 09:18:11;;;;;;;7.85;4.40;;;;;;;10.61;90.71;101602.94;5029094;28;20026;-92
2021/12/31 09:20:37;;;;;;;4.90;3.13;;;;;;;10.68;90.39;101620.41;5036987;28;20084;-95
2021/12/31 09:23:02;;;;;;;6.50;3.00;;;;;;;10.71;90.06;101617.63;5030647;28;20038;-96
2021/12/31 09:25:28;;;;;;;5.63;3.10;;;;;;;10.76;90.13;101614.78;5024487;28;20101;-96
2021/12/31 09:27:53;;;;;;;10.05;3.90;;;;;;;10.76;89.90;101613.94;5044758;28;20036;-96
2021/12/31 09:32:58;;;;;;;4.88;3.00;;;;;;;10.62;89.17;101578.06;5152131;22;20087;-96
2021/12/31 09:35:24;;;;;;;7.55;3.20;;;;;;;10.61;89.12;101576.31;5031469;28;20052;-96
2021/12/31 09:37:49;;;;;;;4.43;2.90;;;;;;;10.75;88.83;101577.59;5043171;28;20022;-96
2021/12/31 09:40:18;;;;;;;4.97;2.85;;;;;;;10.85;88.80;101618.88;5028701;28;20060;-96
2021/12/31 09:42:58;;;;;;;5.60;3.03;;;;;;;11.04;89.37;101651.88;5014661;28;20034;-93
2021/12/31 09:45:24;;;;;;;3.85;2.83;;;;;;;11.00;88.66;101660.91;5011810;28;20089;-94
2021/12/31 09:47:49;;;;;;;5.25;3.35;;;;;;;10.95;88.21;101655.78;5019536;28;20077;-95
2021/12/31 09:50:15;;;;;;;5.20;2.80;;;;;;;10.93;89.07;101660.28;5033225;28;20075;-94
2021/12/31 09:52:41;;;;;;;7.57;3.05;;;;;;;10.87;88.83;101660.53;5029823;28;20036;-94
2021/12/31 09:55:07;;;;;;;5.93;2.75;;;;;;;10.86;88.81;101671.22;5032214;28;20386;-89
2021/12/31 09:57:32;;;;;;;5.07;2.97;;;;;;;10.80;88.96;101655.50;5011582;28;20032;-90
2021/12/31 10:00:02;;;;;;;6.63;2.78;;;;;;;10.84;88.90;101687.25;5032627;28;20113;-92
2021/12/31 10:02:32;;;;;;;4.88;2.92;;;;;;;10.84;89.22;101676.63;5025362;28;20033;-89
2021/12/31 10:04:59;;;;;;;5.10;3.05;;;;;;;10.86;88.80;101668.56;5028946;28;20032;-90
2021/12/31 10:07:26;;;;;;;5.78;3.10;;;;;;;10.88;88.85;101654.25;5028835;28;20033;-92
2021/12/31 10:10:11;;;;;;;5.32;3.00;;;;;;;10.93;88.74;101665.59;5029522;28;20029;-93
2021/12/31 10:12:44;;;;;;;7.43;3.25;;;;;;;10.89;89.00;101660.44;5027316;28;20025;-84
2021/12/31 10:15:09;;;;;;;5.07;2.72;;;;;;;10.82;88.60;101640.31;5023678;28;20066;-85
2021/12/31 10:17:35;;;;;;;6.15;2.85;;;;;;;10.87;88.74;101638.34;5029105;28;20057;-83
2021/12/31 10:20:01;;;;;;;5.57;2.88;;;;;;;10.85;89.11;101630.41;5028286;28;20534;-89
2021/12/31 10:22:26;;;;;;;5.50;3.20;;;;;;;10.84;89.06;101628.69;5025957;28;20430;-88
2021/12/31 10:24:52;;;;;;;4.38;2.70;;;;;;;10.83;89.03;101650.91;5009299;28;20036;-88
2021/12/31 10:27:20;;;;;;;3.88;2.70;;;;;;;10.92;88.88;101655.88;5009048;28;20018;-88
2021/12/31 10:29:59;;;;;;;4.72;2.67;;;;;;;10.91;88.97;101626.63;5010133;28;20037;-89
2021/12/31 10:32:33;;;;;;;4.75;2.85;;;;;;;10.90;89.19;101609.78;5010690;28;20470;-91
2021/12/31 10:35:20;;;;;;;4.88;2.80;;;;;;;10.97;88.48;101611.28;5010467;28;20033;-91
2021/12/31 10:38:01;;;;;;;4.55;2.78;;;;;;;10.98;88.37;101631.66;5029489;28;20057;-93
2021/12/31 10:40:41;;;;;;;4.13;3.20;;;;;;;11.04;88.61;101619.03;5027296;28;20029;-92
2021/12/31 10:43:21;;;;;;;5.63;2.75;;;;;;;11.08;88.18;101628.63;5017443;28;20021;-91
2021/12/31 10:46:10;;;;;;;6.45;3.35;;;;;;;11.17;88.54;101634.44;5028836;28;20025;-91
2021/12/31 10:48:43;;;;;;;3.35;2.38;;;;;;;11.22;87.82;101644.91;5020263;28;20125;-90
2021/12/31 10:51:10;;;;;;;4.93;3.17;;;;;;;11.28;87.85;101651.78;5008617;28;20494;-93
2021/12/31 10:53:37;;;;;;;5.72;2.88;;;;;;;11.47;86.78;101656.31;5011964;28;20394;-91
2021/12/31 10:56:07;;;;;;;4.10;2.80;;;;;;;11.57;86.19;101646.09;5016677;28;20362;-90
2021/12/31 10:58:33;;;;;;;7.80;3.03;;;;;;;11.75;85.97;101660.47;5030113;28;20029;-90
2021/12/31 11:00:59;;;;;;;4.40;2.65;;;;;;;11.80;85.79;101663.81;5028531;28;20029;-90
2021/12/31 11:03:25;;;;;;;9.50;3.08;;;;;;;11.76;85.15;101638.22;4998778;28;20030;-92
2021/12/31 11:05:52;;;;;;;5.10;3.08;;;;;;;11.82;84.92;101647.72;5009490;28;20108;-90
2021/12/31 11:08:18;;;;;;;6.55;3.20;;;;;;;11.84;84.98;101648.59;5009012;28;20058;-88
2021/12/31 11:10:43;;;;;;;8.75;4.22;;;;;;;11.84;84.97;101643.25;5008928;28;20057;-89
2021/12/31 11:13:13;;;;;;;4.72;2.90;;;;;;;11.76;85.10;101624.88;5017682;28;20037;-88
2021/12/31 11:15:40;;;;;;;3.22;2.80;;;;;;;11.81;84.81;101630.88;5028436;28;20029;-89
2021/12/31 11:18:06;;;;;;;4.10;3.17;;;;;;;11.78;85.32;101624.78;5027427;28;20458;-90
2021/12/31 11:20:32;;;;;;;6.07;2.70;;;;;;;11.75;85.26;101623.16;5028322;28;20068;-90
2021/12/31 11:22:57;;;;;;;3.63;2.53;;;;;;;11.67;85.11;101615.47;5000887;28;20173;-89
2021/12/31 11:25:25;;;;;;;4.32;3.00;;;;;;;11.72;85.36;101617.94;5013666;28;20344;-92